createdAt,value
2024-04-23T00:00:21.970Z,11.10
2024-04-23T00:03:11.692Z,11.13
2024-04-23T00:05:59.099Z,11.00
2024-04-23T00:08:51.601Z,10.93
2024-04-23T00:11:39.265Z,11.37
2024-04-23T00:14:29.532Z,11.10
2024-04-23T00:17:16.635Z,11.60
2024-04-23T00:20:06.680Z,10.80
2024-04-23T00:22:53.907Z,11.03
2024-04-23T00:25:46.515Z,10.93
2024-04-23T00:28:33.876Z,11.00
2024-04-23T00:31:23.797Z,11.30
2024-04-23T00:34:11.029Z,11.00
2024-04-23T00:37:02.750Z,11.17
2024-04-23T00:39:50.398Z,10.97
2024-04-23T00:42:43.101Z,11.40
2024-04-23T00:45:47.875Z,11.30
2024-04-23T00:48:38.579Z,11.63
2024-04-23T00:51:25.994Z,11.40
2024-04-23T00:54:17.129Z,11.37
2024-04-23T00:57:05.487Z,11.77
2024-04-23T00:59:58.166Z,11.53
2024-04-23T01:02:46.675Z,10.97
2024-04-23T01:05:36.769Z,10.77
2024-04-23T01:08:24.144Z,11.30
2024-04-23T01:11:14.034Z,11.00
2024-04-23T01:14:01.277Z,11.47
2024-04-23T01:16:54.672Z,11.30
2024-04-23T01:19:46.914Z,11.00
2024-04-23T01:22:44.438Z,10.60
2024-04-23T01:25:31.925Z,11.17
2024-04-23T01:28:24.654Z,10.90
2024-04-23T01:31:12.181Z,11.10
2024-04-23T01:34:03.125Z,11.27
2024-04-23T01:36:51.510Z,11.00
2024-04-23T01:39:42.696Z,10.90
2024-04-23T01:42:31.452Z,11.43
2024-04-23T01:45:24.440Z,10.97
2024-04-23T01:48:12.336Z,11.00
2024-04-23T01:51:02.023Z,11.33
2024-04-23T01:53:49.137Z,10.70
2024-04-23T01:56:39.023Z,10.63
2024-04-23T01:59:26.445Z,10.70
2024-04-23T02:02:20.668Z,11.33
2024-04-23T02:05:13.053Z,11.17
2024-04-23T02:08:01.369Z,10.93
2024-04-23T02:10:51.488Z,11.10
2024-04-23T02:13:41.388Z,11.20
2024-04-23T02:16:28.968Z,11.10
2024-04-23T02:19:21.391Z,10.90
2024-04-23T02:22:08.881Z,10.80
2024-04-23T02:24:58.657Z,11.00
2024-04-23T02:27:45.915Z,10.33
2024-04-23T02:30:35.978Z,11.07
2024-04-23T02:33:23.295Z,11.07
2024-04-23T02:36:16.157Z,10.67
2024-04-23T02:39:03.339Z,10.43
2024-04-23T02:41:54.066Z,10.47
2024-04-23T02:44:41.212Z,10.53
2024-04-23T02:47:31.104Z,10.70
2024-04-23T02:50:18.166Z,10.77
2024-04-23T02:53:10.844Z,10.60
2024-04-23T02:56:01.015Z,10.40
2024-04-23T02:58:48.271Z,10.50
2024-04-23T03:01:38.038Z,10.50
2024-04-23T03:04:25.303Z,10.93
2024-04-23T03:07:15.183Z,10.27
2024-04-23T03:10:05.469Z,10.60
2024-04-23T03:12:55.649Z,10.90
2024-04-23T03:15:43.203Z,11.00
2024-04-23T03:18:32.999Z,11.00
2024-04-23T03:21:20.337Z,10.90
2024-04-23T03:24:10.758Z,11.10
2024-04-23T03:27:00.697Z,11.33
2024-04-23T03:29:50.913Z,11.03
2024-04-23T03:32:38.611Z,11.60
2024-04-23T03:35:28.741Z,11.00
2024-04-23T03:38:18.796Z,10.80
2024-04-23T03:41:09.038Z,11.67
2024-04-23T03:44:01.979Z,10.57
2024-04-23T03:46:52.157Z,10.50
2024-04-23T03:49:42.418Z,10.90
2024-04-23T03:52:30.037Z,10.50
2024-04-23T03:55:19.876Z,10.43
2024-04-23T03:58:07.383Z,10.70
2024-04-23T04:00:59.982Z,11.20
2024-04-23T04:04:05.489Z,10.30
2024-04-23T04:06:55.316Z,10.60
2024-04-23T04:09:45.453Z,10.70
2024-04-23T04:12:35.441Z,10.13
2024-04-23T04:15:25.165Z,10.10
2024-04-23T04:18:15.709Z,10.40
2024-04-23T04:21:05.558Z,10.53
2024-04-23T04:23:55.880Z,10.53
2024-04-23T04:26:45.722Z,10.27
2024-04-23T04:29:33.039Z,11.00
2024-04-23T04:32:22.947Z,10.60
2024-04-23T04:35:13.312Z,10.60
2024-04-23T04:38:03.577Z,10.17
2024-04-23T04:40:51.788Z,10.50
2024-04-23T04:43:41.762Z,10.13
2024-04-23T04:46:29.080Z,10.40
2024-04-23T04:49:19.043Z,10.73
2024-04-23T04:52:09.058Z,11.40
2024-04-23T04:54:59.227Z,10.60
2024-04-23T04:57:46.525Z,10.83
2024-04-23T05:00:36.312Z,11.17
2024-04-23T05:03:23.707Z,10.40
2024-04-23T05:06:13.832Z,10.70
2024-04-23T05:09:04.324Z,11.47
2024-04-23T05:11:54.397Z,10.80
2024-04-23T05:14:42.091Z,10.93
2024-04-23T05:17:31.961Z,11.50
2024-04-23T05:20:19.346Z,10.60
2024-04-23T05:23:09.329Z,10.83
2024-04-23T05:25:59.437Z,11.07
2024-04-23T05:28:49.360Z,10.47
2024-04-23T05:32:03.590Z,10.50
2024-04-23T05:34:53.510Z,10.43
2024-04-23T05:37:43.567Z,11.47
2024-04-23T05:40:33.615Z,9.87
2024-04-23T05:43:26.469Z,10.23
2024-04-23T05:46:16.276Z,10.00
2024-04-23T05:50:02.308Z,10.17
2024-04-23T05:54:07.340Z,10.17
2024-04-23T05:57:16.572Z,12.10
2024-04-23T06:00:07.753Z,10.17
2024-04-23T06:03:17.641Z,9.83
2024-04-23T06:06:07.766Z,10.40
2024-04-23T06:08:57.865Z,10.63
2024-04-23T06:11:47.893Z,10.77
2024-04-23T06:14:35.458Z,10.10
2024-04-23T06:17:35.968Z,10.00
2024-04-23T06:20:29.101Z,10.53
2024-04-23T06:23:23.044Z,10.70
2024-04-23T06:26:10.393Z,10.20
2024-04-23T06:29:02.555Z,9.87
2024-04-23T06:31:50.572Z,10.13
2024-04-23T06:34:43.716Z,9.73
2024-04-23T06:37:33.863Z,10.23
2024-04-23T06:40:21.596Z,10.83
2024-04-23T06:43:14.213Z,9.60
2024-04-23T06:46:02.311Z,10.10
2024-04-23T06:48:52.033Z,10.40
2024-04-23T06:51:42.145Z,10.13
2024-04-23T06:54:32.378Z,9.70
2024-04-23T06:57:20.155Z,9.80
2024-04-23T07:00:12.663Z,9.80
2024-04-23T07:03:02.591Z,10.20
2024-04-23T07:05:54.984Z,10.10
2024-04-23T07:08:45.121Z,9.90
2024-04-23T07:11:35.396Z,9.80
2024-04-23T07:14:25.670Z,9.70
2024-04-23T07:17:13.136Z,9.70
2024-04-23T07:20:03.551Z,9.80
2024-04-23T07:22:53.492Z,9.50
2024-04-23T07:25:50.834Z,9.90
2024-04-23T07:28:40.896Z,9.77
2024-04-23T07:31:28.206Z,9.20
2024-04-23T07:34:17.978Z,9.40
2024-04-23T07:37:05.387Z,9.57
2024-04-23T07:39:55.156Z,9.37
2024-04-23T07:42:46.649Z,9.30
2024-04-23T07:45:37.250Z,9.30
2024-04-23T07:48:24.571Z,9.40
2024-04-23T07:51:14.466Z,9.20
2024-04-23T07:54:04.635Z,9.07
2024-04-23T07:56:51.816Z,9.20
2024-04-23T07:59:44.314Z,9.40
2024-04-23T08:02:31.976Z,9.43
2024-04-23T08:05:21.848Z,9.00
2024-04-23T08:08:09.765Z,9.30
2024-04-23T08:11:00.132Z,9.00
2024-04-23T08:13:50.209Z,9.70
2024-04-23T08:16:43.058Z,9.13
2024-04-23T08:19:30.380Z,9.20
2024-04-23T08:22:20.557Z,9.30
2024-04-23T08:25:14.466Z,9.27
2024-04-23T08:28:02.070Z,9.33
2024-04-23T08:30:51.853Z,9.17
2024-04-23T08:33:41.960Z,9.00
2024-04-23T08:36:33.583Z,9.00
2024-04-23T08:39:21.049Z,9.17
2024-04-23T08:42:13.768Z,9.27
2024-04-23T08:45:02.843Z,8.97
2024-04-23T08:47:53.246Z,9.10
2024-04-23T08:50:47.438Z,8.80
2024-04-23T08:53:35.700Z,8.73
2024-04-23T08:56:26.574Z,8.80
2024-04-23T08:59:16.144Z,9.43
2024-04-23T09:02:08.997Z,8.70
2024-04-23T09:04:57.199Z,9.40
2024-04-23T09:07:50.580Z,8.70
2024-04-23T09:10:37.887Z,9.17
2024-04-23T09:13:27.683Z,9.23
2024-04-23T09:16:15.094Z,9.20
2024-04-23T09:19:05.458Z,9.00
2024-04-23T09:21:52.662Z,9.50
2024-04-23T09:24:45.437Z,9.27
2024-04-23T09:27:34.230Z,9.30
2024-04-23T09:30:30.422Z,9.50
2024-04-23T09:33:28.235Z,9.00
2024-04-23T09:36:15.623Z,9.30
2024-04-23T09:39:06.416Z,9.50
2024-04-23T09:42:03.330Z,9.63
2024-04-23T09:44:52.037Z,9.57
2024-04-23T09:47:44.579Z,9.50
2024-04-23T09:50:31.880Z,9.80
2024-04-23T09:53:21.730Z,8.80
2024-04-23T09:56:15.545Z,9.30
2024-04-23T09:59:06.083Z,8.90
2024-04-23T10:01:57.702Z,9.30
2024-04-23T10:04:45.604Z,9.03
2024-04-23T10:07:42.784Z,8.53
2024-04-23T10:10:41.655Z,9.00
2024-04-23T10:13:37.617Z,8.70
2024-04-23T10:16:36.846Z,8.80
2024-04-23T10:19:27.891Z,8.80
2024-04-23T10:22:15.732Z,8.93
2024-04-23T10:25:06.339Z,8.83
2024-04-23T10:27:54.016Z,8.53
2024-04-23T10:30:45.682Z,9.03
2024-04-23T10:33:37.378Z,8.87
2024-04-23T10:36:29.023Z,9.20
2024-04-23T10:39:23.074Z,9.40
2024-04-23T10:42:13.246Z,9.47
2024-04-23T10:45:01.514Z,9.30
2024-04-23T10:47:56.998Z,9.53
2024-04-23T10:50:59.496Z,9.20
2024-04-23T10:53:50.090Z,9.10
2024-04-23T10:56:38.175Z,9.37
2024-04-23T10:59:30.289Z,9.00
2024-04-23T11:02:27.368Z,9.17
2024-04-23T11:05:22.669Z,9.30
2024-04-23T11:08:23.932Z,9.30
2024-04-23T11:11:14.216Z,9.03
2024-04-23T11:14:01.637Z,9.53
2024-04-23T11:16:51.549Z,9.67
2024-04-23T11:19:40.415Z,9.30
2024-04-23T11:22:38.250Z,11.10
2024-04-23T11:25:35.333Z,9.73
2024-04-23T11:28:26.023Z,12.80
2024-04-23T11:31:13.774Z,10.73
2024-04-23T11:34:04.863Z,10.03
2024-04-23T11:36:54.833Z,10.10
2024-04-23T11:39:42.525Z,11.13
2024-04-23T11:42:37.244Z,10.90
2024-04-23T11:45:24.736Z,10.60
2024-04-23T11:48:14.828Z,10.60
2024-04-23T11:51:02.458Z,10.83
2024-04-23T11:53:53.174Z,10.40
2024-04-23T11:56:40.532Z,10.37
2024-04-23T11:59:34.515Z,12.60
2024-04-23T12:02:23.151Z,10.10
2024-04-23T12:05:15.743Z,10.23
2024-04-23T12:08:04.312Z,10.40
2024-04-23T12:10:54.520Z,10.10
2024-04-23T12:13:48.174Z,11.17
2024-04-23T12:16:45.628Z,10.33
2024-04-23T12:19:37.875Z,10.53
2024-04-23T12:22:28.204Z,10.73
2024-04-23T12:25:16.863Z,10.43
2024-04-23T12:28:07.888Z,10.57
2024-04-23T12:30:55.147Z,10.50
2024-04-23T12:33:48.184Z,10.57
2024-04-23T12:36:36.697Z,10.93
2024-04-23T12:39:28.493Z,11.13
2024-04-23T12:42:15.734Z,11.23
2024-04-23T12:45:05.746Z,11.83
2024-04-23T12:47:57.847Z,10.60
2024-04-23T12:50:50.658Z,11.00
2024-04-23T12:53:38.514Z,10.77
2024-04-23T12:56:29.462Z,11.00
2024-04-23T12:59:16.954Z,10.50
2024-04-23T13:02:08.903Z,10.17
2024-04-23T13:04:56.726Z,10.70
2024-04-23T13:07:49.176Z,10.37
2024-04-23T13:10:39.029Z,10.90
2024-04-23T13:13:27.325Z,10.50
2024-04-23T13:16:17.495Z,10.23
2024-04-23T13:19:05.031Z,10.70
2024-04-23T13:21:55.093Z,10.47
2024-04-23T13:24:45.157Z,10.60
2024-04-23T13:30:37.951Z,10.60
2024-04-23T13:33:25.551Z,10.43
2024-04-23T13:36:16.661Z,10.27
2024-04-23T13:39:04.168Z,10.43
2024-04-23T13:41:56.891Z,10.60
2024-04-23T13:44:44.386Z,10.70
2024-04-23T13:47:39.570Z,11.00
2024-04-23T13:50:29.856Z,10.93
2024-04-23T13:53:17.157Z,10.80
2024-04-23T13:56:10.675Z,11.10
2024-04-23T13:59:01.019Z,11.13
2024-04-23T14:01:51.428Z,11.00
2024-04-23T14:04:45.096Z,10.67
2024-04-23T14:07:36.579Z,10.70
2024-04-23T14:10:24.064Z,10.97
2024-04-23T14:13:14.213Z,10.77
2024-04-23T14:16:11.124Z,10.60
2024-04-23T14:19:01.178Z,10.40
2024-04-23T14:21:49.929Z,10.47
2024-04-23T14:24:39.991Z,10.77
2024-04-23T14:27:27.297Z,11.50
2024-04-23T14:30:17.976Z,11.13
2024-04-23T14:33:08.002Z,10.67
2024-04-23T14:35:58.378Z,10.90
2024-04-23T14:38:47.699Z,10.93
2024-04-23T14:41:37.707Z,10.80
2024-04-23T14:44:25.344Z,10.67
2024-04-23T14:47:15.388Z,10.60
2024-04-23T14:50:08.507Z,10.63
2024-04-23T14:53:01.085Z,10.40
2024-04-23T14:56:02.653Z,10.40
2024-04-23T14:58:53.444Z,10.57
2024-04-23T15:01:43.440Z,10.63
2024-04-23T15:04:31.160Z,11.00
2024-04-23T15:07:31.914Z,10.60
2024-04-23T15:10:22.862Z,10.40
2024-04-23T15:13:10.679Z,10.53
2024-04-23T15:16:04.877Z,10.40
2024-04-23T15:18:53.339Z,10.40
2024-04-23T15:21:43.702Z,10.60
2024-04-23T15:24:38.959Z,10.67
2024-04-23T15:27:29.979Z,10.13
2024-04-23T15:30:17.732Z,10.50
2024-04-23T15:33:08.909Z,10.83
2024-04-23T15:36:00.672Z,10.10
2024-04-23T15:38:52.374Z,10.10
2024-04-23T15:41:42.288Z,10.70
2024-04-23T15:44:32.437Z,10.10
2024-04-23T15:47:19.746Z,11.07
2024-04-23T15:50:11.442Z,10.57
2024-04-23T15:53:01.671Z,10.70
2024-04-23T15:55:49.431Z,10.90
2024-04-23T15:58:42.268Z,10.77
2024-04-23T16:01:29.546Z,10.70
2024-04-23T16:04:19.727Z,10.37
2024-04-23T16:07:07.773Z,10.70
2024-04-23T16:09:58.556Z,10.50
2024-04-23T16:12:46.100Z,10.40
2024-04-23T16:15:40.822Z,11.30
2024-04-23T16:18:29.484Z,10.63
2024-04-23T16:21:19.858Z,11.10
2024-04-23T16:24:08.332Z,10.70
2024-04-23T16:27:01.891Z,10.43
2024-04-23T16:29:50.468Z,10.47
2024-04-23T16:32:43.231Z,10.70
2024-04-23T16:35:32.316Z,10.23
2024-04-23T16:38:22.358Z,10.87
2024-04-23T16:41:10.290Z,10.40
2024-04-23T16:44:00.327Z,10.70
2024-04-23T16:46:51.687Z,10.43
2024-04-23T16:49:42.009Z,10.50
2024-04-23T16:52:32.131Z,10.67
2024-04-23T16:55:19.614Z,10.20
2024-04-23T16:58:09.553Z,9.90
2024-04-23T17:00:56.946Z,10.70
2024-04-23T17:03:47.105Z,10.60
2024-04-23T17:06:37.345Z,10.53
2024-04-23T17:09:27.470Z,10.97
2024-04-23T17:12:14.933Z,10.70
2024-04-23T17:15:04.986Z,10.97
2024-04-23T17:17:52.881Z,10.70
2024-04-23T17:20:43.219Z,11.00
2024-04-23T17:23:33.166Z,11.90
2024-04-23T17:26:23.313Z,11.30
2024-04-23T17:29:10.796Z,11.37
2024-04-23T17:32:01.743Z,10.50
2024-04-23T17:34:52.320Z,10.90
2024-04-23T17:37:42.341Z,10.57
2024-04-23T17:40:34.937Z,10.80
2024-04-23T17:43:22.737Z,11.00
2024-04-23T17:46:14.612Z,10.63
2024-04-23T17:49:01.948Z,10.87
2024-04-23T17:51:52.027Z,10.87
2024-04-23T17:54:39.367Z,11.47
2024-04-23T17:57:31.994Z,11.47
2024-04-23T18:00:19.317Z,10.37
2024-04-23T18:03:09.360Z,10.40
2024-04-23T18:05:59.645Z,11.00
2024-04-23T18:08:47.288Z,10.30
2024-04-23T18:11:37.962Z,10.43
2024-04-23T18:14:28.118Z,10.50
2024-04-23T18:17:18.565Z,11.07
2024-04-23T18:20:07.454Z,11.03
2024-04-23T18:22:57.682Z,11.20
2024-04-23T18:25:52.441Z,11.53
2024-04-23T18:28:42.458Z,11.00
2024-04-23T18:31:35.175Z,11.13
2024-04-23T18:34:25.375Z,11.13
2024-04-23T18:37:13.163Z,11.20
2024-04-23T18:40:03.200Z,11.20
2024-04-23T18:42:51.482Z,10.87
2024-04-23T18:45:41.652Z,11.20
2024-04-23T18:48:31.807Z,10.97
2024-04-23T18:51:22.604Z,11.53
2024-04-23T18:54:12.822Z,10.37
2024-04-23T18:57:00.668Z,11.40
2024-04-23T18:59:50.561Z,11.67
2024-04-23T19:02:40.837Z,11.60
2024-04-23T19:05:30.877Z,12.03
2024-04-23T19:08:21.005Z,11.37
2024-04-23T19:11:08.704Z,11.43
2024-04-23T19:14:10.726Z,11.90
2024-04-23T19:17:04.902Z,11.73
2024-04-23T19:19:52.372Z,10.80
2024-04-23T19:22:45.011Z,11.10
2024-04-23T19:25:35.119Z,11.70
2024-04-23T19:28:22.706Z,11.17
2024-04-23T19:31:13.432Z,11.00
2024-04-23T19:34:01.320Z,11.23
2024-04-23T19:36:52.017Z,10.50
2024-04-23T19:39:42.534Z,10.70
2024-04-23T19:42:32.405Z,10.73
2024-04-23T19:45:19.970Z,11.30
2024-04-23T19:48:10.804Z,11.10
2024-04-23T19:50:58.389Z,11.03
2024-04-23T19:53:50.297Z,11.23
2024-04-23T19:56:56.105Z,11.87
2024-04-23T19:59:47.049Z,10.97
2024-04-23T20:02:37.562Z,11.20
2024-04-23T20:05:27.864Z,11.20
2024-04-23T20:08:18.339Z,11.70
2024-04-23T20:11:08.526Z,11.80
2024-04-23T20:14:01.086Z,11.30
2024-04-23T20:16:51.166Z,11.10
2024-04-23T20:19:41.386Z,11.77
2024-04-23T20:22:31.457Z,11.43
2024-04-23T20:25:21.684Z,11.27
2024-04-23T20:28:11.986Z,11.40
2024-04-23T20:31:06.664Z,13.37
2024-04-23T20:33:57.021Z,11.47
2024-04-23T20:36:47.039Z,11.40
2024-04-23T20:39:37.112Z,11.77
2024-04-23T20:42:27.335Z,12.10
2024-04-23T20:45:17.642Z,11.50
2024-04-23T20:48:11.094Z,11.40
2024-04-23T20:51:01.419Z,11.10
2024-04-23T20:53:51.830Z,11.40
2024-04-23T20:56:41.932Z,11.10
2024-04-23T20:59:32.338Z,11.60
2024-04-23T21:02:22.423Z,11.30
2024-04-23T21:05:15.241Z,11.27
2024-04-23T21:08:07.997Z,10.80
2024-04-23T21:10:59.946Z,12.03
2024-04-23T21:13:50.237Z,11.20
2024-04-23T21:16:40.436Z,11.17
2024-04-23T21:19:30.377Z,11.30
2024-04-23T21:22:23.186Z,11.10
2024-04-23T21:25:13.314Z,10.90
2024-04-23T21:28:03.824Z,10.90
2024-04-23T21:30:53.723Z,11.00
2024-04-23T21:33:44.078Z,11.10
2024-04-23T21:36:33.970Z,10.73
2024-04-23T21:39:27.085Z,10.53
2024-04-23T21:42:28.074Z,11.13
2024-04-23T21:45:25.746Z,10.63
2024-04-23T21:48:16.609Z,11.10
2024-04-23T21:51:11.225Z,10.37
2024-04-23T21:54:01.197Z,10.53
2024-04-23T21:56:54.024Z,10.93
2024-04-23T21:59:44.717Z,11.00
2024-04-23T22:02:34.866Z,10.70
2024-04-23T22:05:25.215Z,11.00
2024-04-23T22:08:15.478Z,11.20
2024-04-23T22:11:05.641Z,10.40
2024-04-23T22:13:58.250Z,10.80
2024-04-23T22:16:48.352Z,10.90
2024-04-23T22:19:38.200Z,10.73
2024-04-23T22:22:28.452Z,11.00
2024-04-23T22:25:20.560Z,11.30
2024-04-23T22:28:11.116Z,11.10
2024-04-23T22:31:04.906Z,11.30
2024-04-23T22:33:55.193Z,10.57
2024-04-23T22:36:45.361Z,10.80
2024-04-23T22:39:35.582Z,11.10
2024-04-23T22:42:25.702Z,10.97
2024-04-23T22:45:15.745Z,10.63
2024-04-23T22:48:10.218Z,11.03
2024-04-23T22:51:00.548Z,10.43
2024-04-23T22:53:50.898Z,10.30
2024-04-23T22:56:41.209Z,10.53
2024-04-23T22:59:31.497Z,10.60
2024-04-23T23:02:21.394Z,11.07
2024-04-23T23:05:14.170Z,10.40
2024-04-23T23:08:04.481Z,10.60
2024-04-23T23:10:54.708Z,10.93
2024-04-23T23:13:44.676Z,11.07
2024-04-23T23:16:34.686Z,10.53
2024-04-23T23:19:24.946Z,10.47
2024-04-23T23:22:17.755Z,10.50
2024-04-23T23:25:08.783Z,10.40
2024-04-23T23:27:59.020Z,10.70
2024-04-23T23:30:49.631Z,10.70
2024-04-23T23:33:40.293Z,10.63
2024-04-23T23:36:30.497Z,10.83
2024-04-23T23:39:23.352Z,10.77
2024-04-23T23:42:14.021Z,10.73
2024-04-23T23:45:04.413Z,10.63
2024-04-23T23:47:54.502Z,10.67
2024-04-23T23:50:44.411Z,10.63
2024-04-23T23:53:34.559Z,10.63
2024-04-23T23:56:27.407Z,10.63
2024-04-23T23:59:17.390Z,11.10
